Time;durP1;ratioP1;P1;durP2;ratioP2;P2;SDS_P1;SDS_P2;PMS_P1;PMS_P2;Temp;Humidity;BMP_temperature;BMP_pressure;BME280_temperature;BME280_humidity;BME280_pressure;Samples;Min_cycle;Max_cycle;Signal;HPM_P1;HPM_P2
2022/08/16 00:00:32;;;;;;;14.77;10.68;;;20.80;99.90;;;19.99;100.00;100134.84;4947548;28;20494;-77
2022/08/16 00:03:01;;;;;;;20.15;12.07;;;20.70;99.90;;;20.02;100.00;100129.19;4930988;28;20041;-77
2022/08/16 00:05:28;;;;;;;18.73;10.27;;;20.80;99.90;;;20.04;100.00;100137.91;4919043;28;20031;-77
2022/08/16 00:07:54;;;;;;;20.10;10.35;;;20.80;99.90;;;20.07;100.00;100145.66;4958407;28;20033;-77
2022/08/16 00:10:22;;;;;;;21.15;10.43;;;20.80;99.90;;;20.10;100.00;100149.84;4933033;28;20026;-78
2022/08/16 00:12:51;;;;;;;16.20;10.82;;;20.80;99.90;;;20.12;100.00;100158.56;4954591;28;20165;-77
2022/08/16 00:15:31;;;;;;;15.13;10.55;;;20.90;99.90;;;20.12;100.00;100167.44;4942504;28;20038;-77
2022/08/16 00:17:57;;;;;;;19.05;11.98;;;20.80;99.90;;;20.10;100.00;100163.22;4921064;28;20567;-77
2022/08/16 00:20:24;;;;;;;19.02;12.30;;;20.80;99.90;;;20.12;100.00;100177.28;4952336;28;20051;-77
2022/08/16 00:22:51;;;;;;;16.83;11.02;;;20.80;99.90;;;20.14;100.00;100180.66;4938348;28;20125;-77
2022/08/16 00:25:20;;;;;;;17.35;11.30;;;20.80;99.90;;;20.14;100.00;100181.50;4946966;28;20456;-77
2022/08/16 00:27:47;;;;;;;16.48;10.88;;;20.90;99.90;;;20.17;100.00;100197.25;4966040;28;20129;-77
2022/08/16 00:30:16;;;;;;;16.08;10.38;;;20.90;99.90;;;20.18;100.00;100203.44;4938328;28;20031;-77
2022/08/16 00:32:46;;;;;;;25.50;12.30;;;20.90;99.90;;;20.14;100.00;100208.22;4942751;28;20061;-78
2022/08/16 00:35:18;;;;;;;21.50;13.30;;;20.90;99.90;;;20.10;100.00;100206.81;4950876;28;20071;-78
2022/08/16 00:37:45;;;;;;;19.50;13.95;;;20.90;99.90;;;20.10;100.00;100214.84;4928430;28;20045;-77
2022/08/16 00:40:18;;;;;;;17.02;12.35;;;20.80;99.90;;;20.10;100.00;100228.19;4940804;28;20731;-77
2022/08/16 00:42:46;;;;;;;24.20;14.30;;;20.90;99.90;;;20.10;100.00;100238.88;4936143;28;20523;-77
2022/08/16 00:45:37;;;;;;;22.27;14.02;;;20.80;99.90;;;20.05;100.00;100252.69;4906833;28;20090;-77
2022/08/16 00:48:09;;;;;;;26.75;15.60;;;20.80;99.90;;;20.02;100.00;100257.47;4927978;28;20112;-77
2022/08/16 00:50:42;;;;;;;24.30;17.75;;;20.70;99.90;;;19.92;100.00;100275.38;4971727;28;20030;-77
2022/08/16 00:53:12;;;;;;;34.90;17.63;;;20.70;99.90;;;19.86;100.00;100282.94;4947633;28;20043;-77
2022/08/16 00:55:45;;;;;;;28.27;18.10;;;20.70;99.90;;;19.86;100.00;100280.28;4939582;28;20050;-77
2022/08/16 00:58:14;;;;;;;30.10;19.00;;;20.70;99.90;;;19.86;100.00;100285.63;4954660;28;20039;-77
2022/08/16 01:00:40;;;;;;;35.30;20.83;;;20.70;99.90;;;19.84;100.00;100294.78;4951562;28;20034;-77
2022/08/16 01:03:12;;;;;;;35.63;22.05;;;20.60;99.90;;;19.80;100.00;100296.03;4943678;28;20031;-77
2022/08/16 01:05:39;;;;;;;35.28;21.85;;;20.60;99.90;;;19.78;100.00;100298.84;4941195;28;20070;-77
2022/08/16 01:08:08;;;;;;;41.45;23.20;;;20.60;99.90;;;19.76;100.00;100294.63;4915854;28;20411;-77
2022/08/16 01:10:35;;;;;;;37.05;22.20;;;20.60;99.90;;;19.76;100.00;100298.16;4937718;28;20035;-77
2022/08/16 01:13:08;;;;;;;39.33;21.88;;;20.60;99.90;;;19.75;100.00;100299.13;4952923;28;20441;-77
2022/08/16 01:15:51;;;;;;;23.97;18.10;;;20.60;99.90;;;19.75;100.00;100288.44;4960965;28;20513;-77
2022/08/16 01:18:21;;;;;;;36.72;18.83;;;20.50;99.90;;;19.71;100.00;100289.72;4951193;28;20030;-78
2022/08/16 01:21:02;;;;;;;43.20;20.77;;;20.50;99.90;;;19.66;100.00;100284.78;4909325;28;20034;-77
2022/08/16 01:23:52;;;;;;;37.08;20.75;;;20.40;99.90;;;19.59;100.00;100283.66;4943378;28;20039;-77
2022/08/16 01:26:19;;;;;;;33.20;20.65;;;20.40;99.90;;;19.52;100.00;100277.16;4951169;28;20039;-77
2022/08/16 01:28:46;;;;;;;31.40;20.25;;;20.30;99.90;;;19.46;100.00;100283.94;4945411;28;20027;-77
2022/08/16 01:31:13;;;;;;;35.17;22.27;;;20.30;99.90;;;19.43;100.00;100280.69;4931368;28;20661;-77
2022/08/16 01:33:42;;;;;;;32.35;21.33;;;20.20;99.90;;;19.37;100.00;100279.44;4925603;28;20034;-77
2022/08/16 01:36:09;;;;;;;33.40;21.88;;;20.20;99.90;;;19.33;100.00;100277.16;4927298;28;20047;-77
2022/08/16 01:38:39;;;;;;;36.90;23.60;;;20.10;99.90;;;19.32;100.00;100286.16;4943639;28;20615;-77
2022/08/16 01:41:10;;;;;;;37.65;23.58;;;20.10;99.90;;;19.29;100.00;100287.28;4893582;28;20050;-77
2022/08/16 01:43:39;;;;;;;38.42;22.48;;;20.10;99.90;;;19.30;100.00;100288.13;4932512;28;20101;-77
2022/08/16 01:46:17;;;;;;;41.70;23.70;;;20.10;99.90;;;19.29;100.00;100289.97;4959215;28;20177;-77
2022/08/16 01:48:43;;;;;;;40.42;22.65;;;20.10;99.90;;;19.31;100.00;100300.47;4969524;28;20031;-77
2022/08/16 01:51:12;;;;;;;42.33;24.25;;;20.10;99.90;;;19.30;100.00;100304.97;4952075;28;20023;-77
2022/08/16 01:53:40;;;;;;;33.35;20.27;;;20.10;99.90;;;19.35;100.00;100304.56;4901834;28;20030;-78
2022/08/16 01:56:06;;;;;;;28.60;18.95;;;20.10;99.90;;;19.37;100.00;100313.28;4943684;28;20022;-77
2022/08/16 01:58:31;;;;;;;33.65;20.08;;;20.20;99.90;;;19.40;100.00;100310.34;4951471;28;20039;-77
2022/08/16 02:00:57;;;;;;;;;;;20.20;99.90;;;19.40;100.00;100305.00;4934728;28;20030;-77
2022/08/16 02:03:23;;;;;;;37.67;22.75;;;20.20;99.90;;;19.40;100.00;100313.84;4933972;28;19918;-77
2022/08/16 02:05:49;;;;;;;;;;;20.20;99.90;;;19.45;100.00;100302.75;4969943;28;20038;-77
2022/08/16 02:08:14;;;;;;;30.58;18.92;;;20.20;99.90;;;19.44;100.00;100301.06;4944566;28;19928;-77
2022/08/16 02:10:40;;;;;;;35.10;19.50;;;20.20;99.90;;;19.49;100.00;100297.97;4938511;28;20045;-77
2022/08/16 02:13:07;;;;;;;;;;;20.30;99.90;;;19.47;100.00;100292.78;4955537;28;20065;-77
2022/08/16 02:15:36;;;;;;;35.80;22.42;;;20.30;99.90;;;19.51;100.00;100290.69;4956738;28;19982;-77
2022/08/16 02:18:03;;;;;;;29.92;21.27;;;20.30;99.90;;;19.57;100.00;100295.47;4931766;28;20035;-77
2022/08/16 02:20:32;;;;;;;31.25;21.38;;;20.30;99.90;;;19.58;100.00;100292.63;4930267;28;20039;-77
2022/08/16 02:23:00;;;;;;;31.92;21.75;;;20.40;99.90;;;19.59;100.00;100282.78;4938445;28;20046;-77
2022/08/16 02:25:27;;;;;;;35.80;22.15;;;20.40;99.90;;;19.62;100.00;100287.88;4947952;28;20077;-77
2022/08/16 02:27:53;;;;;;;42.72;22.25;;;20.40;99.90;;;19.62;100.00;100293.22;4932552;28;20034;-77
2022/08/16 02:30:24;;;;;;;39.90;22.55;;;20.40;99.90;;;19.62;100.00;100293.22;4948157;28;20038;-77
2022/08/16 02:32:50;;;;;;;35.45;23.00;;;20.40;99.90;;;19.60;100.00;100295.16;4942599;28;20077;-77
2022/08/16 02:35:20;;;;;;;32.20;21.77;;;20.40;99.90;;;19.59;100.00;100298.81;4943886;28;20046;-77
2022/08/16 02:37:45;;;;;;;36.83;20.92;;;20.40;99.90;;;19.63;100.00;100289.53;4922064;28;20043;-77
2022/08/16 02:40:15;;;;;;;30.70;17.05;;;20.40;99.90;;;19.64;100.00;100284.06;4945305;28;20633;-77
2022/08/16 02:42:46;;;;;;;37.80;21.85;;;20.40;99.90;;;19.62;100.00;100271.84;4961445;28;20050;-77
2022/08/16 02:45:12;;;;;;;53.50;26.77;;;20.40;99.90;;;19.53;100.00;100268.19;4928916;28;20034;-77
2022/08/16 02:47:39;;;;;;;40.83;24.70;;;20.30;99.90;;;19.50;100.00;100267.63;4961073;28;20030;-77
2022/08/16 02:50:05;;;;;;;67.90;30.80;;;20.20;99.90;;;19.42;100.00;100263.00;4980151;28;20434;-77
2022/08/16 02:52:32;;;;;;;59.92;27.15;;;20.20;99.90;;;19.38;100.00;100253.56;4930365;28;20150;-77
2022/08/16 02:55:00;;;;;;;29.25;18.17;;;20.20;99.90;;;19.33;100.00;100253.13;4940120;28;20035;-77
2022/08/16 02:57:26;;;;;;;29.30;18.00;;;20.10;99.90;;;19.27;100.00;100251.88;4936827;28;20517;-77
2022/08/16 02:59:52;;;;;;;29.63;19.58;;;20.00;99.90;;;19.21;100.00;100257.78;4941859;28;20034;-77
2022/08/16 03:02:18;;;;;;;;;;;20.00;99.90;;;19.12;100.00;100258.59;4945004;28;21057;-78
2022/08/16 03:04:44;;;;;;;37.00;20.52;;;19.90;99.90;;;19.04;100.00;100261.94;4969710;28;19930;-77
2022/08/16 03:07:11;;;;;;;61.50;27.92;;;19.90;99.90;;;19.00;100.00;100258.69;4959801;28;20031;-77
2022/08/16 03:09:37;;;;;;;48.38;24.88;;;19.80;99.90;;;18.97;100.00;100267.00;4932141;28;20114;-77
2022/08/16 03:12:05;;;;;;;39.92;22.35;;;19.80;99.90;;;18.92;100.00;100261.22;4969412;28;20034;-77
2022/08/16 03:14:31;;;;;;;43.78;23.73;;;19.70;99.90;;;18.82;100.00;100249.69;4925623;28;20035;-77
2022/08/16 03:16:58;;;;;;;54.63;27.50;;;19.60;99.90;;;18.78;100.00;100256.28;4941596;28;20030;-77
2022/08/16 03:19:24;;;;;;;64.65;30.15;;;19.60;99.90;;;18.73;100.00;100253.97;4915372;28;20094;-77
2022/08/16 03:21:50;;;;;;;60.20;30.77;;;19.60;99.90;;;18.69;100.00;100262.41;4955483;28;20133;-77
2022/08/16 03:24:20;;;;;;;37.08;25.23;;;19.50;99.90;;;18.69;100.00;100257.91;4965569;28;20055;-77
2022/08/16 03:26:46;;;;;;;56.10;30.23;;;19.50;99.90;;;18.64;100.00;100255.63;4948849;28;20055;-77
2022/08/16 03:29:12;;;;;;;35.95;24.40;;;19.50;99.90;;;18.64;100.00;100250.31;4942191;28;20113;-77
2022/08/16 03:31:38;;;;;;;;;;;19.50;99.90;;;18.61;100.00;100255.88;4950337;28;20126;-77
2022/08/16 03:34:04;;;;;;;40.85;25.67;;;19.50;99.90;;;18.59;100.00;100249.84;4971474;28;19939;-77
2022/08/16 03:36:29;;;;;;;41.55;24.65;;;19.50;99.90;;;18.62;100.00;100243.44;4951663;28;20039;-78
2022/08/16 03:39:03;;;;;;;36.70;21.17;;;19.40;99.90;;;18.66;100.00;100247.50;4923887;28;20587;-77
2022/08/16 03:41:28;;;;;;;30.98;17.45;;;19.40;99.90;;;18.64;100.00;100239.66;4961714;28;20121;-77
2022/08/16 03:43:55;;;;;;;29.73;17.27;;;19.40;99.90;;;18.65;100.00;100243.16;4943031;28;20134;-77
2022/08/16 03:46:21;;;;;;;33.75;20.48;;;19.40;99.90;;;18.66;100.00;100244.84;4934750;28;20087;-77
2022/08/16 03:48:48;;;;;;;28.85;18.13;;;19.40;99.90;;;18.64;100.00;100252.13;4964197;28;20066;-77
2022/08/16 03:51:16;;;;;;;29.45;20.27;;;19.40;99.90;;;18.63;100.00;100247.75;4967370;28;20029;-77
2022/08/16 03:53:43;;;;;;;23.65;16.90;;;19.40;99.90;;;18.61;100.00;100245.22;4940674;28;20503;-77
2022/08/16 03:56:10;;;;;;;34.60;23.35;;;19.40;99.90;;;18.59;100.00;100246.34;4941411;28;20418;-77
2022/08/16 03:58:36;;;;;;;43.95;24.73;;;19.40;99.90;;;18.60;100.00;100248.88;4955094;28;20109;-77
2022/08/16 04:01:03;;;;;;;22.98;19.25;;;19.30;99.90;;;18.58;100.00;100245.50;4952289;28;20069;-77
2022/08/16 04:03:30;;;;;;;29.58;22.00;;;19.40;99.90;;;18.60;100.00;100258.72;4932462;28;20027;-77
2022/08/16 04:05:56;;;;;;;49.90;29.13;;;19.40;99.90;;;18.62;100.00;100254.09;4940066;28;20109;-77
2022/08/16 04:08:22;;;;;;;29.27;21.02;;;19.40;99.90;;;18.63;100.00;100263.75;4959269;28;20034;-77
2022/08/16 04:10:49;;;;;;;23.08;17.92;;;19.40;99.90;;;18.64;100.00;100266.31;4944578;28;20023;-76
2022/08/16 04:13:15;;;;;;;34.53;24.02;;;19.40;99.90;;;18.68;100.00;100274.03;4942432;28;20161;-76
2022/08/16 04:15:41;;;;;;;37.40;25.30;;;19.40;99.90;;;18.69;100.00;100270.41;4953536;28;21380;-77
2022/08/16 04:18:12;;;;;;;37.63;25.23;;;19.40;99.90;;;18.75;100.00;100277.88;4941198;28;20034;-77
2022/08/16 04:20:38;;;;;;;35.58;25.13;;;19.50;99.90;;;18.80;100.00;100283.66;4933007;28;20054;-77
2022/08/16 04:23:06;;;;;;;42.85;25.30;;;19.50;99.90;;;18.87;100.00;100279.44;4945318;28;20522;-77
2022/08/16 04:25:34;;;;;;;37.03;25.02;;;19.60;99.90;;;18.93;100.00;100286.91;4964391;28;20893;-77
2022/08/16 04:28:01;;;;;;;43.58;26.83;;;19.60;99.90;;;18.99;100.00;100297.03;4954815;28;20039;-76
2022/08/16 04:30:27;;;;;;;40.28;26.45;;;19.70;99.90;;;18.98;100.00;100292.69;4944512;28;20035;-77
2022/08/16 04:32:53;;;;;;;41.67;26.65;;;19.70;99.90;;;19.01;100.00;100297.75;4927050;28;20049;-77
2022/08/16 04:35:23;;;;;;;37.95;26.98;;;19.80;99.90;;;19.06;100.00;100303.53;4934319;28;20054;-77
2022/08/16 04:37:50;;;;;;;37.90;26.75;;;19.80;99.90;;;19.24;100.00;100300.19;4915890;28;20755;-77
2022/08/16 04:40:19;;;;;;;40.80;26.35;;;20.00;99.90;;;19.44;100.00;100299.25;4975005;28;20520;-76
2022/08/16 04:42:45;;;;;;;36.88;25.08;;;20.10;99.90;;;19.64;100.00;100304.59;4946732;28;20026;-76
2022/08/16 04:45:13;;;;;;;42.10;26.27;;;20.50;99.90;;;20.46;100.00;100309.41;4953073;28;20042;-77
2022/08/16 04:47:41;;;;;;;37.78;24.73;;;21.30;99.90;;;21.91;100.00;100312.25;4931964;28;20090;-77
2022/08/16 04:50:12;;;;;;;32.25;22.92;;;22.20;99.90;;;23.29;100.00;100323.13;4951674;28;20041;-76
2022/08/16 04:52:39;;;;;;;32.38;21.35;;;23.20;99.90;;;24.48;93.98;100319.13;4967354;28;20124;-77
2022/08/16 04:55:16;;;;;;;28.65;19.05;;;24.00;99.90;;;25.61;86.22;100326.91;4966456;28;20041;-76
2022/08/16 04:57:43;;;;;;;28.27;18.85;;;24.90;99.90;;;26.78;79.68;100335.50;4944606;28;20042;-76
2022/08/16 05:00:14;;;;;;;23.95;18.05;;;25.70;99.90;;;27.54;75.16;100329.78;4963837;28;20041;-77
2022/08/16 05:02:41;;;;;;;22.60;15.63;;;26.30;99.90;;;28.34;72.06;100330.53;4943756;28;20030;-77
2022/08/16 05:05:09;;;;;;;22.52;16.60;;;27.00;99.90;;;29.27;68.12;100337.53;4950093;28;20104;-77
2022/08/16 05:07:36;;;;;;;21.65;15.70;;;27.70;99.90;;;30.02;65.19;100339.16;4952133;28;20046;-77
2022/08/16 05:10:05;;;;;;;22.63;14.75;;;28.30;99.90;;;30.66;62.98;100344.94;4955584;28;20030;-77
2022/08/16 05:12:30;;;;;;;19.73;14.10;;;28.80;99.90;;;31.21;60.91;100350.84;4960448;28;20043;-77
2022/08/16 05:14:56;;;;;;;19.85;14.95;;;29.30;99.90;;;31.67;59.42;100349.78;4944775;28;20049;-77
2022/08/16 05:17:22;;;;;;;24.55;14.10;;;29.60;99.90;;;31.86;58.28;100360.75;4943502;28;20058;-77
2022/08/16 05:19:48;;;;;;;16.80;14.00;;;29.90;99.90;;;32.10;57.56;100369.19;4916404;28;20070;-77
2022/08/16 05:22:14;;;;;;;19.08;13.55;;;30.00;99.90;;;32.07;57.06;100365.88;4952419;28;20042;-77
2022/08/16 05:24:40;;;;;;;22.10;14.88;;;30.20;99.90;;;32.31;56.54;100363.31;4960884;28;20043;-77
2022/08/16 05:27:06;;;;;;;17.60;13.90;;;30.30;99.90;;;32.83;55.00;100357.59;4960498;28;20061;-77
2022/08/16 05:29:33;;;;;;;19.00;13.32;;;30.50;99.90;;;33.23;54.09;100359.88;4939408;28;20118;-77
2022/08/16 05:32:00;;;;;;;17.35;12.57;;;30.90;99.90;;;33.83;52.22;100364.53;4947625;28;20047;-77
2022/08/16 05:34:26;;;;;;;16.13;13.18;;;31.30;99.90;;;34.60;50.32;100372.69;4971097;28;20034;-77
2022/08/16 05:36:56;;;;;;;17.58;12.80;;;31.70;99.90;;;35.14;49.20;100372.50;4931342;28;20508;-77
2022/08/16 05:39:23;;;;;;;22.77;13.13;;;32.00;99.90;;;34.77;49.51;100371.97;4933297;28;20039;-77
2022/08/16 05:41:50;;;;;;;15.18;12.60;;;32.20;99.90;;;35.59;48.19;100382.69;4956867;28;20455;-77
2022/08/16 05:44:17;;;;;;;19.67;12.65;;;32.70;99.90;;;36.57;47.02;100387.06;4971243;28;20518;-77
2022/08/16 05:46:44;;;;;;;19.98;12.73;;;33.20;99.90;;;37.23;45.51;100393.50;4972385;28;20042;-77
2022/08/16 05:49:15;;;;;;;18.23;12.50;;;33.70;99.90;;;38.00;43.57;100382.50;4981628;28;20034;-77
2022/08/16 05:51:43;;;;;;;18.05;11.95;;;34.30;98.50;;;38.54;42.47;100388.72;4978468;28;20130;-77
2022/08/16 05:54:13;;;;;;;15.32;11.23;;;34.80;97.90;;;38.95;41.76;100394.47;4969417;28;20030;-77
2022/08/16 05:56:40;;;;;;;15.65;12.18;;;35.30;96.90;;;39.34;41.04;100395.97;4933417;28;20098;-77
2022/08/16 05:59:07;;;;;;;19.55;12.40;;;35.60;96.90;;;39.68;40.12;100410.16;4972636;28;20109;-77
2022/08/16 06:01:34;;;;;;;13.85;11.65;;;35.90;95.40;;;39.77;39.90;100414.00;4963169;28;20035;-77
2022/08/16 06:03:59;;;;;;;14.32;11.68;;;36.20;95.30;;;40.03;39.70;100427.03;4965114;28;20069;-78
2022/08/16 06:06:27;;;;;;;14.98;10.90;;;36.40;94.90;;;40.13;39.28;100425.09;4969091;28;20050;-78
2022/08/16 06:08:53;;;;;;;17.50;11.55;;;36.70;94.70;;;40.48;38.69;100426.19;4939268;28;20041;-78
2022/08/16 06:11:19;;;;;;;25.02;10.65;;;37.00;93.80;;;40.72;38.32;100423.69;4959294;28;20042;-78
2022/08/16 06:13:46;;;;;;;14.45;10.60;;;37.30;93.20;;;41.05;37.44;100423.31;4963243;28;20030;-77
2022/08/16 06:16:12;;;;;;;11.00;9.95;;;37.60;93.40;;;41.26;37.53;100424.88;4933155;28;20522;-77
2022/08/16 06:18:44;;;;;;;18.05;10.82;;;38.00;93.00;;;41.64;36.24;100430.75;4963171;28;20034;-77
2022/08/16 06:21:12;;;;;;;14.30;10.70;;;38.30;92.40;;;41.91;36.25;100426.72;4947241;28;20038;-77
2022/08/16 06:23:39;;;;;;;13.18;9.73;;;38.60;92.00;;;42.16;35.79;100422.94;4937513;28;20031;-78
2022/08/16 06:26:06;;;;;;;12.23;9.25;;;38.90;91.10;;;42.34;35.34;100427.75;4973143;28;20062;-78
2022/08/16 06:28:33;;;;;;;10.23;9.15;;;39.00;90.40;;;41.40;36.03;100436.94;4941688;28;20041;-77
2022/08/16 06:31:03;;;;;;;10.85;8.82;;;39.00;90.30;;;41.80;35.12;100435.09;4936579;28;20042;-78
2022/08/16 06:33:29;;;;;;;9.45;8.55;;;39.00;89.10;;;41.82;35.08;100437.56;4970365;28;20041;-78
2022/08/16 06:35:55;;;;;;;11.05;9.23;;;39.20;88.80;;;41.85;35.67;100428.69;4951540;28;20027;-77
2022/08/16 06:38:22;;;;;;;12.00;8.63;;;39.30;89.10;;;41.63;35.88;100428.31;4970679;28;20041;-77
2022/08/16 06:40:50;;;;;;;11.18;8.63;;;39.40;88.90;;;41.52;35.99;100433.03;4943399;28;20097;-78
2022/08/16 06:43:19;;;;;;;11.15;8.35;;;39.50;88.40;;;41.46;35.54;100440.53;4971879;28;20491;-77
2022/08/16 06:45:46;;;;;;;11.57;8.43;;;39.60;88.10;;;41.70;35.32;100434.34;4942403;28;20031;-78
2022/08/16 06:48:13;;;;;;;9.10;7.88;;;39.80;87.50;;;41.81;35.38;100428.44;4962229;28;20042;-78
2022/08/16 06:50:39;;;;;;;12.13;8.02;;;40.10;86.90;;;42.25;35.13;100436.97;4959557;28;20066;-78
2022/08/16 06:53:05;;;;;;;9.77;7.85;;;40.40;86.00;;;42.35;34.35;100434.13;4958917;28;20400;-77
2022/08/16 06:55:35;;;;;;;8.88;7.80;;;40.50;84.30;;;42.29;34.43;100440.81;4927892;28;20054;-78
2022/08/16 06:58:01;;;;;;;17.77;8.13;;;40.70;84.00;;;42.27;34.06;100435.59;4967568;28;20039;-77
2022/08/16 07:00:28;;;;;;;14.70;8.40;;;40.80;84.00;;;42.31;34.42;100444.09;4962911;28;20038;-77
2022/08/16 07:02:55;;;;;;;12.80;8.10;;;41.00;83.70;;;42.55;34.31;100439.50;4942267;28;20035;-78
2022/08/16 07:05:24;;;;;;;10.95;7.57;;;41.20;82.00;;;42.63;34.06;100446.31;4971323;28;20507;-77
2022/08/16 07:07:51;;;;;;;12.05;7.85;;;41.50;82.30;;;42.93;34.03;100444.34;4951783;28;20042;-77
2022/08/16 07:10:18;;;;;;;10.25;8.25;;;41.70;80.80;;;42.88;33.24;100439.72;4967652;28;20077;-79
2022/08/16 07:12:44;;;;;;;11.93;8.77;;;41.70;79.80;;;42.50;33.79;100439.53;4949682;28;20107;-77
2022/08/16 07:15:10;;;;;;;8.82;7.88;;;41.60;80.10;;;42.40;34.11;100436.81;4917701;28;20035;-77
2022/08/16 07:17:36;;;;;;;8.52;7.18;;;41.60;80.50;;;42.54;33.35;100432.28;4959483;28;20042;-78
2022/08/16 07:20:07;;;;;;;10.13;7.40;;;41.70;80.60;;;42.72;34.05;100439.00;4928910;28;20042;-78
2022/08/16 07:22:33;;;;;;;10.52;8.23;;;41.90;79.30;;;42.37;33.39;100435.47;4961204;28;20034;-77
2022/08/16 07:25:00;;;;;;;10.40;7.95;;;42.00;79.50;;;42.54;33.55;100435.06;4948892;28;20081;-78
2022/08/16 07:27:26;;;;;;;11.25;7.60;;;42.00;77.50;;;42.35;34.30;100437.69;4958807;28;20031;-77
2022/08/16 07:29:52;;;;;;;9.60;8.00;;;42.10;78.00;;;42.45;33.75;100434.06;4934494;28;20047;-78
2022/08/16 07:32:21;;;;;;;10.90;7.95;;;42.10;77.90;;;42.49;34.02;100437.06;4944115;28;20041;-77
2022/08/16 07:34:47;;;;;;;9.98;7.82;;;42.10;77.60;;;42.14;34.36;100431.53;4940822;28;20039;-77
2022/08/16 07:37:14;;;;;;;10.75;8.02;;;42.00;78.20;;;42.10;34.05;100427.72;4949331;28;20042;-78
2022/08/16 07:39:40;;;;;;;8.75;7.85;;;41.90;77.50;;;41.87;34.82;100428.41;4955028;28;20046;-80
2022/08/16 07:42:06;;;;;;;10.75;7.55;;;41.80;78.30;;;41.94;34.79;100435.25;4953485;28;20035;-77
2022/08/16 07:44:34;;;;;;;11.55;7.65;;;41.80;77.30;;;41.99;34.07;100435.25;4970396;28;20090;-78
2022/08/16 07:47:02;;;;;;;10.38;7.65;;;41.90;77.50;;;41.76;34.91;100434.00;4917475;28;20049;-78
2022/08/16 07:49:28;;;;;;;8.75;7.85;;;41.80;76.60;;;41.52;35.50;100444.09;4958159;28;20049;-77
2022/08/16 07:51:54;;;;;;;9.90;7.45;;;41.70;77.20;;;41.34;35.10;100445.56;4945708;28;20038;-79
2022/08/16 07:54:19;;;;;;;10.88;7.82;;;41.50;77.50;;;40.98;36.33;100429.94;4951867;28;20394;-77
2022/08/16 07:56:46;;;;;;;9.80;8.00;;;41.40;79.10;;;41.04;36.25;100435.44;4953353;28;20038;-78
2022/08/16 07:59:14;;;;;;;15.80;7.40;;;41.30;78.90;;;41.15;35.58;100428.81;4944466;28;20042;-77
2022/08/16 08:01:40;;;;;;;14.30;7.78;;;41.20;77.20;;;40.81;35.73;100429.44;4957304;28;20077;-77
2022/08/16 08:04:09;;;;;;;11.15;8.15;;;41.10;77.20;;;40.53;36.10;100420.66;4940589;28;20117;-78
2022/08/16 08:06:35;;;;;;;12.57;8.13;;;40.70;78.30;;;40.23;37.12;100423.44;4969507;28;20045;-79
2022/08/16 08:09:02;;;;;;;11.10;7.88;;;40.40;80.10;;;39.81;37.64;100411.53;4951545;28;20031;-78
2022/08/16 08:11:29;;;;;;;10.93;8.70;;;40.30;79.40;;;39.81;37.76;100418.97;4942233;28;20054;-77
2022/08/16 08:13:58;;;;;;;9.20;8.18;;;39.90;80.20;;;39.30;38.62;100406.72;4924169;28;20623;-77
2022/08/16 08:16:26;;;;;;;9.10;7.50;;;39.80;80.10;;;39.51;38.08;100417.81;4955752;28;20038;-77
2022/08/16 08:18:53;;;;;;;13.85;7.20;;;39.70;80.60;;;39.50;38.00;100413.41;4953214;28;20034;-77
2022/08/16 08:21:23;;;;;;;9.82;7.72;;;39.60;79.70;;;39.26;38.47;100415.78;4969897;28;20065;-77
2022/08/16 08:23:50;;;;;;;8.48;7.25;;;39.50;80.50;;;39.11;39.52;100413.78;4969697;28;20022;-77
2022/08/16 08:26:18;;;;;;;13.00;6.88;;;39.30;80.90;;;39.03;38.93;100412.41;4966672;28;20038;-78
2022/08/16 08:28:45;;;;;;;7.78;7.05;;;39.10;81.80;;;38.97;39.10;100414.28;4959908;28;20042;-78
2022/08/16 08:31:21;;;;;;;9.32;7.47;;;39.00;82.50;;;38.79;39.56;100414.69;4940432;28;20090;-79
2022/08/16 08:33:47;;;;;;;8.00;7.20;;;38.90;81.80;;;38.64;39.71;100420.97;4959321;28;20034;-77
2022/08/16 08:36:22;;;;;;;8.82;7.40;;;38.60;81.80;;;38.23;40.13;100414.31;4948357;28;20043;-78
2022/08/16 08:38:49;;;;;;;10.68;6.80;;;38.40;82.30;;;38.06;40.66;100414.44;4926648;28;20037;-77
2022/08/16 08:41:15;;;;;;;11.63;7.38;;;38.20;82.80;;;37.76;40.27;100404.81;4940798;28;20031;-77
2022/08/16 08:43:41;;;;;;;11.30;7.38;;;37.90;83.10;;;37.45;42.36;100407.19;4971178;28;20443;-77
2022/08/16 08:46:10;;;;;;;11.38;7.72;;;37.60;84.50;;;37.15;42.28;100411.25;4962196;28;20031;-77
2022/08/16 08:48:38;;;;;;;11.27;6.95;;;37.30;85.40;;;37.01;42.54;100411.88;4960923;28;20398;-77
2022/08/16 08:51:07;;;;;;;9.85;6.50;;;37.00;84.60;;;36.73;42.64;100413.69;4927847;28;20105;-78
2022/08/16 08:53:34;;;;;;;7.82;6.97;;;36.70;85.00;;;36.45;42.79;100415.44;4969590;28;20034;-79
2022/08/16 08:56:02;;;;;;;8.85;6.85;;;36.30;85.90;;;35.80;44.08;100413.22;4971591;28;20464;-75
2022/08/16 08:58:28;;;;;;;8.50;6.43;;;35.80;87.70;;;35.51;45.72;100415.94;4951272;28;20035;-77
2022/08/16 09:00:56;;;;;;;9.07;5.90;;;35.40;85.80;;;34.65;45.33;100408.38;4969637;28;20057;-77
2022/08/16 09:03:22;;;;;;;7.35;5.93;;;35.00;86.40;;;34.41;45.72;100406.69;4924175;28;20031;-77
2022/08/16 09:05:52;;;;;;;10.65;7.15;;;34.70;89.50;;;33.90;47.63;100408.94;4971673;28;20563;-77
2022/08/16 09:08:20;;;;;;;8.45;6.03;;;34.30;89.70;;;33.71;47.99;100408.97;4964727;28;20578;-77
2022/08/16 09:10:46;;;;;;;7.97;5.60;;;34.10;87.10;;;33.46;45.89;100405.56;4959325;28;20776;-77
2022/08/16 09:13:13;;;;;;;7.78;5.53;;;33.70;86.20;;;32.96;46.02;100408.41;4972923;28;20031;-77
2022/08/16 09:15:39;;;;;;;10.35;6.05;;;33.40;89.00;;;32.63;48.88;100412.31;4953906;28;20045;-77
2022/08/16 09:18:08;;;;;;;8.80;6.85;;;33.00;90.90;;;32.27;50.79;100422.06;4975836;28;20038;-77
2022/08/16 09:20:35;;;;;;;7.22;5.63;;;32.80;90.90;;;32.28;49.97;100421.00;4935270;28;20069;-76
2022/08/16 09:23:02;;;;;;;7.72;6.68;;;32.60;90.80;;;32.10;50.00;100420.94;4981825;28;20125;-77
2022/08/16 09:25:31;;;;;;;7.32;5.95;;;32.50;90.30;;;31.91;49.32;100422.72;4975367;28;20043;-77
2022/08/16 09:28:00;;;;;;;7.68;6.20;;;32.40;90.70;;;31.83;49.89;100423.78;4981939;28;20038;-77
2022/08/16 09:30:33;;;;;;;7.78;6.30;;;32.30;92.30;;;31.84;51.88;100423.59;4968639;28;20040;-77
2022/08/16 09:33:04;;;;;;;17.83;7.15;;;32.20;92.50;;;31.76;51.63;100417.56;4972021;28;20042;-77
2022/08/16 09:35:31;;;;;;;9.10;6.53;;;32.20;92.90;;;31.89;52.33;100420.19;4948845;28;20427;-77
2022/08/16 09:38:00;;;;;;;6.82;6.00;;;32.30;91.60;;;31.86;50.60;100417.94;4959640;28;20038;-77
2022/08/16 09:40:27;;;;;;;6.93;5.85;;;32.30;92.10;;;31.91;50.08;100418.09;4978773;28;20038;-77
2022/08/16 09:42:57;;;;;;;9.43;6.25;;;32.30;91.20;;;31.93;49.44;100417.88;4967345;28;20568;-77
2022/08/16 09:45:26;;;;;;;9.90;5.80;;;32.30;90.70;;;31.75;49.38;100407.72;4939139;28;20042;-77
2022/08/16 09:47:53;;;;;;;8.98;5.97;;;32.20;92.00;;;31.76;50.38;100415.66;4956438;28;20102;-82
2022/08/16 09:50:28;;;;;;;6.65;5.47;;;32.10;90.80;;;31.76;49.33;100417.56;4949283;28;20066;-78
2022/08/16 09:52:54;;;;;;;6.75;5.35;;;32.10;91.10;;;31.81;49.47;100425.91;4943038;28;20042;-78
2022/08/16 09:55:24;;;;;;;6.20;4.70;;;32.10;91.50;;;31.88;49.17;100424.00;4969565;28;20043;-78
2022/08/16 09:57:50;;;;;;;7.75;5.30;;;32.20;90.40;;;31.90;48.21;100416.41;4984661;28;20050;-78
2022/08/16 10:00:17;;;;;;;8.55;5.28;;;32.20;90.20;;;31.77;48.92;100422.78;4971643;28;20038;-78
2022/08/16 10:02:47;;;;;;;7.53;5.10;;;32.30;90.30;;;31.85;48.43;100425.22;4957733;28;20038;-78
2022/08/16 10:05:16;;;;;;;6.80;4.93;;;32.20;90.00;;;31.77;48.58;100427.38;4966956;28;20035;-78